Time;durP1;ratioP1;P1;durP2;ratioP2;P2;SDS_P1;SDS_P2;PMS_P1;PMS_P2;Temp;Humidity;BMP_temperature;BMP_pressure;BME280_temperature;BME280_humidity;BME280_pressure;Samples;Min_cycle;Max_cycle;Signal;HPM_P1;HPM_P2
2022/05/13 00:02:22;;;;;;;37.55;27.45;;;15.00;99.90;;;;;;5075400;28;20021;-86
2022/05/13 00:04:48;;;;;;;37.22;28.42;;;14.90;99.90;;;;;;5074170;28;20041;-86
2022/05/13 00:07:14;;;;;;;33.58;27.95;;;14.90;99.90;;;;;;5074027;28;20024;-86
2022/05/13 00:10:00;;;;;;;31.13;26.48;;;14.90;99.90;;;;;;5074204;28;20029;-86
2022/05/13 00:12:32;;;;;;;33.17;27.55;;;14.90;99.90;;;;;;5075247;28;20436;-85
2022/05/13 00:15:00;;;;;;;38.83;28.13;;;15.00;99.90;;;;;;5073861;28;20043;-85
2022/05/13 00:17:27;;;;;;;32.30;26.38;;;15.00;99.90;;;;;;5074115;28;20404;-86
2022/05/13 00:19:54;;;;;;;31.33;26.33;;;14.90;99.90;;;;;;5073897;28;20025;-86
2022/05/13 00:22:20;;;;;;;33.60;27.55;;;14.90;99.90;;;;;;5075028;28;20033;-86
2022/05/13 00:24:46;;;;;;;36.45;27.10;;;14.90;99.90;;;;;;5073489;28;20035;-86
2022/05/13 00:27:12;;;;;;;36.83;28.10;;;14.80;99.90;;;;;;5074997;28;20031;-86
2022/05/13 00:29:38;;;;;;;36.60;27.98;;;14.80;99.90;;;;;;5074891;28;20021;-86
2022/05/13 00:32:04;;;;;;;34.92;27.90;;;14.70;99.90;;;;;;5074854;28;20031;-86
2022/05/13 00:34:30;;;;;;;36.90;28.83;;;14.70;99.90;;;;;;5073283;28;20048;-86
2022/05/13 00:36:56;;;;;;;34.92;29.15;;;14.70;99.90;;;;;;5073614;28;20032;-86
2022/05/13 00:39:22;;;;;;;38.22;28.60;;;14.60;99.90;;;;;;5075095;28;20024;-85
2022/05/13 00:41:48;;;;;;;37.33;28.25;;;14.60;99.90;;;;;;5074943;28;20036;-86
2022/05/13 00:44:15;;;;;;;36.75;30.00;;;14.50;99.90;;;;;;5074345;28;20379;-86
2022/05/13 00:46:41;;;;;;;37.95;30.00;;;14.50;99.90;;;;;;5073508;28;20429;-86
2022/05/13 00:49:10;;;;;;;38.13;30.08;;;14.40;99.90;;;;;;5073420;28;20029;-86
2022/05/13 00:51:39;;;;;;;36.42;30.40;;;14.40;99.90;;;;;;5074572;28;20021;-86
2022/05/13 00:54:07;;;;;;;38.92;31.27;;;14.40;99.90;;;;;;5074399;28;20016;-86
2022/05/13 00:56:34;;;;;;;41.67;31.73;;;14.30;99.90;;;;;;5074591;28;20024;-87
2022/05/13 00:59:03;;;;;;;39.75;32.78;;;14.30;99.90;;;;;;5073408;28;20388;-86
2022/05/13 01:01:29;;;;;;;41.45;32.63;;;14.20;99.90;;;;;;5074417;28;20027;-86
2022/05/13 01:04:03;;;;;;;42.10;33.65;;;14.20;99.90;;;;;;5073352;28;20082;-86
2022/05/13 01:06:30;;;;;;;43.60;34.08;;;14.20;99.90;;;;;;5073354;28;20475;-86
2022/05/13 01:08:56;;;;;;;41.58;34.60;;;14.20;99.90;;;;;;5073133;28;20032;-86
2022/05/13 01:11:26;;;;;;;39.50;32.30;;;14.20;99.90;;;;;;5073101;28;20025;-86
2022/05/13 01:13:59;;;;;;;41.80;34.70;;;14.20;99.90;;;;;;5073101;28;20029;-86
2022/05/13 01:16:24;;;;;;;47.65;35.13;;;14.20;99.90;;;;;;5073099;28;20071;-86
2022/05/13 01:18:51;;;;;;;43.63;35.40;;;14.10;99.90;;;;;;5073379;28;20107;-86
2022/05/13 01:21:25;;;;;;;40.85;33.22;;;14.10;99.90;;;;;;5072964;28;20027;-86
2022/05/13 01:23:52;;;;;;;44.30;35.60;;;14.10;99.90;;;;;;5073039;28;20052;-86
2022/05/13 01:26:25;;;;;;;47.15;35.28;;;14.00;99.90;;;;;;5073101;28;20033;-86
2022/05/13 01:28:54;;;;;;;47.13;36.38;;;14.00;99.90;;;;;;5073110;28;20029;-86
2022/05/13 01:31:22;;;;;;;51.20;36.92;;;13.90;99.90;;;;;;5072949;28;20020;-86
2022/05/13 01:33:48;;;;;;;47.95;37.60;;;13.90;99.90;;;;;;5072510;28;20079;-86
2022/05/13 01:36:15;;;;;;;43.80;36.17;;;13.90;99.90;;;;;;5072744;28;20052;-86
2022/05/13 01:38:42;;;;;;;45.63;36.90;;;13.90;99.90;;;;;;5072865;28;20016;-86
2022/05/13 01:41:10;;;;;;;44.90;37.08;;;13.90;99.90;;;;;;5072864;28;20031;-86
2022/05/13 01:43:38;;;;;;;45.97;36.45;;;13.80;99.90;;;;;;5072896;28;20025;-86
2022/05/13 01:46:04;;;;;;;43.50;36.80;;;13.80;99.90;;;;;;5072658;28;20077;-86
2022/05/13 01:48:30;;;;;;;41.97;36.22;;;13.70;99.90;;;;;;5072765;28;20020;-86
2022/05/13 01:50:56;;;;;;;47.70;37.72;;;13.70;99.90;;;;;;5072907;28;20485;-86
2022/05/13 01:53:22;;;;;;;48.58;38.33;;;13.70;99.90;;;;;;5073737;28;20114;-86
2022/05/13 01:55:47;;;;;;;56.72;39.15;;;13.70;99.90;;;;;;5074337;28;20029;-87
2022/05/13 01:58:19;;;;;;;45.50;37.67;;;13.60;99.90;;;;;;5077827;28;20049;-87
2022/05/13 02:00:47;;;;;;;49.42;38.13;;;13.60;99.90;;;;;;5076630;28;20064;-86
2022/05/13 02:06:03;;;;;;;47.78;37.20;;;13.60;99.90;;;;;;5078302;28;20055;-86
2022/05/13 02:08:29;;;;;;;48.55;36.05;;;13.60;99.90;;;;;;5076767;28;20024;-87
2022/05/13 02:10:55;;;;;;;51.90;37.40;;;13.60;99.90;;;;;;5076489;28;20074;-86
2022/05/13 02:13:21;;;;;;;54.65;40.55;;;13.60;99.90;;;;;;5076144;28;20032;-86
2022/05/13 02:15:47;;;;;;;51.63;39.28;;;13.60;99.90;;;;;;5076429;28;20035;-86
2022/05/13 02:18:13;;;;;;;45.90;37.63;;;13.60;99.90;;;;;;5077342;28;20379;-86
2022/05/13 02:20:40;;;;;;;46.83;37.17;;;13.60;99.90;;;;;;5076312;28;20423;-86
2022/05/13 02:23:07;;;;;;;48.90;37.55;;;13.60;99.90;;;;;;5076099;28;20021;-86
2022/05/13 02:25:33;;;;;;;45.92;35.97;;;13.70;99.90;;;;;;5076032;28;20467;-86
2022/05/13 02:28:00;;;;;;;48.10;37.22;;;13.60;99.90;;;;;;5076166;28;20040;-86
2022/05/13 02:30:27;;;;;;;45.28;36.72;;;13.60;99.90;;;;;;5076096;28;20032;-86
2022/05/13 02:32:53;;;;;;;46.08;37.35;;;13.60;99.90;;;;;;5077276;28;20443;-86
2022/05/13 02:35:19;;;;;;;60.88;46.50;;;13.60;99.90;;;;;;5076821;28;20106;-86
2022/05/13 02:37:45;;;;;;;56.80;45.75;;;13.70;99.90;;;;;;5077181;28;20024;-87
2022/05/13 02:40:11;;;;;;;48.65;40.42;;;13.80;99.90;;;;;;5077088;28;20074;-86
2022/05/13 02:42:37;;;;;;;46.42;34.05;;;14.00;99.90;;;;;;5077058;28;20025;-87
2022/05/13 02:45:04;;;;;;;43.95;31.75;;;14.10;99.90;;;;;;5075910;28;20024;-87
2022/05/13 02:47:30;;;;;;;45.13;31.58;;;14.20;99.90;;;;;;5076987;28;20024;-87
2022/05/13 02:52:40;;;;;;;49.78;35.90;;;14.30;99.90;;;;;;5076750;28;20085;-86
2022/05/13 02:55:06;;;;;;;46.40;35.85;;;14.40;99.90;;;;;;5075410;28;20020;-86
2022/05/13 02:57:33;;;;;;;47.13;36.67;;;14.40;99.90;;;;;;5076910;28;20025;-87
2022/05/13 02:59:59;;;;;;;49.10;34.63;;;14.50;99.90;;;;;;5075577;28;20020;-86
2022/05/13 03:02:25;;;;;;;42.40;30.88;;;14.60;99.90;;;;;;5075442;28;20027;-85
2022/05/13 03:04:51;;;;;;;32.80;23.70;;;14.50;99.90;;;;;;5075389;28;20437;-86
2022/05/13 03:07:17;;;;;;;28.70;20.33;;;14.40;99.90;;;;;;5074975;28;20032;-86
2022/05/13 03:09:43;;;;;;;24.95;19.58;;;14.30;99.90;;;;;;5076430;28;20025;-86
2022/05/13 03:12:11;;;;;;;24.98;19.52;;;14.20;99.90;;;;;;5076392;28;20368;-85
2022/05/13 03:14:37;;;;;;;22.17;18.25;;;14.20;99.90;;;;;;5075192;28;20115;-86
2022/05/13 03:17:06;;;;;;;25.35;18.45;;;14.10;99.90;;;;;;5075958;28;20029;-87
2022/05/13 03:19:35;;;;;;;20.05;16.25;;;14.00;99.90;;;;;;5075254;28;20029;-88
2022/05/13 03:22:01;;;;;;;20.95;14.98;;;14.00;99.90;;;;;;5075061;28;20383;-86
2022/05/13 03:24:27;;;;;;;18.23;13.02;;;13.90;99.90;;;;;;5076236;28;20036;-87
2022/05/13 03:26:53;;;;;;;19.00;13.50;;;13.80;99.90;;;;;;5074982;28;20029;-86
2022/05/13 03:29:20;;;;;;;15.60;11.73;;;13.70;99.90;;;;;;5074914;28;20024;-86
2022/05/13 03:31:46;;;;;;;17.80;10.10;;;13.80;99.90;;;;;;5074862;28;20029;-89
2022/05/13 03:34:12;;;;;;;15.38;9.57;;;13.80;99.90;;;;;;5074648;28;20048;-87
2022/05/13 03:36:37;;;;;;;11.20;8.48;;;13.80;99.90;;;;;;5075047;28;20035;-88
2022/05/13 03:39:04;;;;;;;13.88;8.10;;;13.80;99.90;;;;;;5074806;28;20017;-88
2022/05/13 03:41:30;;;;;;;13.90;8.30;;;13.70;99.90;;;;;;5074848;28;20035;-88
2022/05/13 03:43:56;;;;;;;13.77;6.90;;;13.70;99.90;;;;;;5075531;28;20056;-86
2022/05/13 03:46:21;;;;;;;10.57;7.22;;;13.60;99.90;;;;;;5075818;28;20483;-89
2022/05/13 03:48:47;;;;;;;10.55;6.88;;;13.60;99.90;;;;;;5075862;28;20061;-86
2022/05/13 03:51:13;;;;;;;8.98;7.03;;;13.70;99.90;;;;;;5074751;28;20386;-87
2022/05/13 03:53:39;;;;;;;9.98;6.93;;;13.70;99.90;;;;;;5074706;28;20036;-89
2022/05/13 03:56:05;;;;;;;9.15;6.93;;;13.80;99.90;;;;;;5074521;28;20049;-88
2022/05/13 03:58:31;;;;;;;10.60;7.03;;;13.90;99.90;;;;;;5075691;28;20047;-87
2022/05/13 04:00:57;;;;;;;9.75;7.05;;;14.00;99.90;;;;;;5074692;28;20016;-88
2022/05/13 04:03:24;;;;;;;20.83;7.25;;;14.00;99.90;;;;;;5074186;28;20070;-86
2022/05/13 04:11:18;;;;;;;8.73;6.80;;;14.10;99.90;;;;;;5075984;28;20038;-87
2022/05/13 04:16:28;;;;;;;9.45;6.63;;;14.10;99.90;;;;;;5075565;28;20509;-88
2022/05/13 04:18:54;;;;;;;14.75;5.60;;;14.20;99.90;;;;;;5074330;28;20025;-85
2022/05/13 04:21:23;;;;;;;8.88;6.00;;;14.30;99.90;;;;;;5075221;28;20055;-87
2022/05/13 04:23:51;;;;;;;8.73;6.30;;;14.30;99.90;;;;;;5075237;28;20025;-88
2022/05/13 04:26:17;;;;;;;13.50;6.28;;;14.30;99.90;;;;;;5073763;28;20025;-85
2022/05/13 04:28:45;;;;;;;7.57;5.32;;;14.40;99.90;;;;;;5074010;28;20111;-86
2022/05/13 04:31:13;;;;;;;11.15;5.28;;;14.40;99.90;;;;;;5074164;28;20024;-87
2022/05/13 04:33:39;;;;;;;15.02;5.15;;;14.50;99.90;;;;;;5073574;28;20054;-91
2022/05/13 04:36:06;;;;;;;9.70;5.10;;;14.60;99.90;;;;;;5074034;28;20467;-87
2022/05/13 04:38:33;;;;;;;8.52;4.30;;;14.60;99.90;;;;;;5075190;28;20127;-89
2022/05/13 04:42:49;;;;;;;9.32;5.00;;;14.70;99.90;;;;;;5073764;28;20016;-89
2022/05/13 04:43:45;;;;;;;10.15;5.13;;;14.80;99.90;;;;;;5074002;28;20094;-88
2022/05/13 04:46:10;;;;;;;8.23;5.10;;;14.80;99.90;;;;;;5074201;28;20455;-88
2022/05/13 04:48:36;;;;;;;9.35;4.90;;;14.80;99.90;;;;;;5073001;28;20024;-89
2022/05/13 04:51:02;;;;;;;6.15;4.30;;;14.80;99.90;;;;;;5072773;28;20036;-92
2022/05/13 04:53:32;;;;;;;5.25;4.05;;;14.80;99.90;;;;;;5072392;28;20024;-88
2022/05/13 04:55:59;;;;;;;13.75;5.50;;;14.80;99.90;;;;;;5072885;28;20455;-87
2022/05/13 04:58:25;;;;;;;7.18;3.95;;;14.70;99.90;;;;;;5073607;28;20025;-88
2022/05/13 05:00:54;;;;;;;8.63;3.70;;;14.60;99.90;;;;;;5074967;28;20021;-89
2022/05/13 05:03:21;;;;;;;5.00;3.40;;;14.50;99.90;;;;;;5073724;28;20059;-88
2022/05/13 05:05:47;;;;;;;4.47;3.03;;;14.50;99.90;;;;;;5074365;28;20182;-90
2022/05/13 05:08:15;;;;;;;4.40;3.08;;;14.60;99.90;;;;;;5074489;28;20023;-89
2022/05/13 05:10:42;;;;;;;4.32;3.00;;;14.70;99.90;;;;;;5073511;28;20115;-89
2022/05/13 05:13:08;;;;;;;4.68;3.03;;;14.70;99.90;;;;;;5073305;28;20116;-88
2022/05/13 05:15:36;;;;;;;3.75;3.10;;;14.80;99.90;;;;;;5074649;28;20032;-87
2022/05/13 05:18:02;;;;;;;4.50;3.65;;;14.80;99.90;;;;;;5073218;28;20489;-88
2022/05/13 05:20:28;;;;;;;5.70;2.67;;;14.90;99.90;;;;;;5073374;28;20032;-87
2022/05/13 05:22:53;;;;;;;7.60;2.72;;;15.00;99.90;;;;;;5073337;28;20463;-89
2022/05/13 05:25:21;;;;;;;3.58;2.50;;;15.00;99.90;;;;;;5073383;28;20542;-89
2022/05/13 05:27:47;;;;;;;5.75;2.50;;;15.10;99.90;;;;;;5074284;28;20036;-89
2022/05/13 05:30:15;;;;;;;4.43;2.50;;;15.10;99.90;;;;;;5074154;28;20534;-90
2022/05/13 05:32:42;;;;;;;5.38;2.70;;;15.20;99.90;;;;;;5074398;28;20032;-88
2022/05/13 05:35:12;;;;;;;2.78;2.38;;;15.30;99.90;;;;;;5072942;28;20056;-88
2022/05/13 05:37:38;;;;;;;3.17;2.47;;;15.30;99.50;;;;;;5074583;28;20017;-88
2022/05/13 05:40:05;;;;;;;1.88;1.70;;;15.40;99.90;;;;;;5074346;28;20032;-89
2022/05/13 05:42:31;;;;;;;5.90;1.63;;;15.30;97.30;;;;;;5074284;28;20017;-89
2022/05/13 05:44:57;;;;;;;3.30;1.98;;;15.30;97.90;;;;;;5074215;28;20024;-91
2022/05/13 05:47:23;;;;;;;8.18;1.85;;;15.40;97.00;;;;;;5074145;28;20029;-87
2022/05/13 05:49:50;;;;;;;4.68;1.60;;;15.40;96.90;;;;;;5072977;28;20363;-90
2022/05/13 05:52:15;;;;;;;3.92;1.80;;;15.40;97.10;;;;;;5073124;28;20485;-88
2022/05/13 05:57:26;;;;;;;3.03;1.40;;;15.50;95.70;;;;;;5074252;28;20024;-88
2022/05/13 05:59:52;;;;;;;2.20;1.67;;;15.50;96.40;;;;;;5073984;28;20028;-88
2022/05/13 06:02:18;;;;;;;1.58;1.48;;;15.60;95.70;;;;;;5073035;28;20024;-88
2022/05/13 06:04:44;;;;;;;1.75;1.65;;;15.70;94.90;;;;;;5072980;28;20498;-89
2022/05/13 06:07:12;;;;;;;1.30;1.20;;;15.70;95.40;;;;;;5072773;28;20024;-88
2022/05/13 06:09:40;;;;;;;1.83;1.52;;;15.80;92.40;;;;;;5072843;28;20120;-88
2022/05/13 06:12:07;;;;;;;2.97;1.20;;;15.90;93.40;;;;;;5073955;28;20021;-88
2022/05/13 06:14:33;;;;;;;3.63;2.00;;;15.90;93.10;;;;;;5072110;28;20032;-88
2022/05/13 06:16:59;;;;;;;2.08;1.40;;;15.90;93.20;;;;;;5072752;28;20028;-89
2022/05/13 06:19:25;;;;;;;2.33;1.20;;;15.90;92.80;;;;;;5072764;28;20021;-87
2022/05/13 06:21:51;;;;;;;1.30;1.20;;;16.00;91.40;;;;;;5073646;28;20436;-91
2022/05/13 06:24:20;;;;;;;1.42;1.27;;;16.00;92.20;;;;;;5073839;28;20024;-87
2022/05/13 06:26:48;;;;;;;4.85;1.27;;;16.00;92.20;;;;;;5072435;28;20025;-87
2022/05/13 06:29:15;;;;;;;2.70;0.90;;;16.10;91.50;;;;;;5072832;28;20123;-86
2022/05/13 06:31:42;;;;;;;1.77;1.50;;;16.20;90.90;;;;;;5073627;28;20099;-90
2022/05/13 06:34:09;;;;;;;2.38;1.08;;;16.30;90.20;;;;;;5072130;28;20051;-86
2022/05/13 06:36:35;;;;;;;1.10;0.85;;;16.30;90.00;;;;;;5072355;28;20025;-87
2022/05/13 06:39:01;;;;;;;2.38;0.93;;;16.40;87.50;;;;;;5072810;28;20017;-88
2022/05/13 06:41:27;;;;;;;3.28;1.17;;;16.50;90.00;;;;;;5073160;28;20020;-88
2022/05/13 06:43:53;;;;;;;1.17;1.08;;;16.50;88.10;;;;;;5075781;28;20539;-88
2022/05/13 06:46:18;;;;;;;4.00;1.20;;;16.50;86.20;;;;;;5076119;28;20029;-91
2022/05/13 06:48:44;;;;;;;1.50;1.02;;;16.60;86.00;;;;;;5077245;28;20025;-88
2022/05/13 06:51:10;;;;;;;2.50;0.90;;;16.60;86.10;;;;;;5075915;28;20074;-88
2022/05/13 06:53:39;;;;;;;2.25;0.98;;;16.70;85.20;;;;;;5076112;28;20029;-91
2022/05/13 06:56:05;;;;;;;0.90;0.90;;;16.70;86.20;;;;;;5077158;28;20485;-88
2022/05/13 06:58:30;;;;;;;4.22;1.02;;;16.80;86.60;;;;;;5075642;28;20139;-87
2022/05/13 07:00:56;;;;;;;1.20;0.90;;;16.90;86.10;;;;;;5075558;28;20023;-85
2022/05/13 07:03:22;;;;;;;3.47;1.27;;;17.00;85.90;;;;;;5076856;28;20078;-90
2022/05/13 07:05:48;;;;;;;1.27;1.17;;;17.20;85.50;;;;;;5075782;28;20025;-89
2022/05/13 07:08:14;;;;;;;1.27;1.02;;;17.30;86.80;;;;;;5075520;28;20103;-87
2022/05/13 07:10:41;;;;;;;2.90;0.95;;;17.40;81.90;;;;;;5076721;28;20028;-89
2022/05/13 07:13:09;;;;;;;1.20;1.08;;;17.40;83.00;;;;;;5075458;28;20032;-88
2022/05/13 07:15:35;;;;;;;1.33;1.17;;;17.40;83.80;;;;;;5075430;28;20474;-87
2022/05/13 07:18:01;;;;;;;1.33;1.05;;;17.40;81.80;;;;;;5076562;28;20016;-88
2022/05/13 07:20:27;;;;;;;3.15;1.20;;;17.40;80.90;;;;;;5075374;28;20020;-88
2022/05/13 07:22:57;;;;;;;2.40;1.23;;;17.40;81.30;;;;;;5075488;28;20028;-87
2022/05/13 07:25:23;;;;;;;2.45;1.35;;;17.40;80.50;;;;;;5076472;28;20393;-88
2022/05/13 07:27:49;;;;;;;4.13;1.15;;;17.40;81.90;;;;;;5076235;28;20032;-89
2022/05/13 07:30:15;;;;;;;1.42;1.10;;;17.50;81.60;;;;;;5076475;28;20028;-89
2022/05/13 07:32:41;;;;;;;2.97;1.20;;;17.50;81.50;;;;;;5076399;28;20024;-90
2022/05/13 07:35:08;;;;;;;1.45;1.20;;;17.60;82.30;;;;;;5074856;28;20110;-88
2022/05/13 07:37:35;;;;;;;1.58;1.00;;;17.70;78.60;;;;;;5075185;28;20074;-89
2022/05/13 07:42:46;;;;;;;2.97;1.20;;;17.80;76.80;;;;;;5076477;28;20078;-89
2022/05/13 07:45:12;;;;;;;2.92;0.95;;;17.90;78.20;;;;;;5075068;28;20024;-88
2022/05/13 07:47:42;;;;;;;2.70;1.45;;;17.90;78.00;;;;;;5075058;28;20028;-87
2022/05/13 07:50:10;;;;;;;2.67;1.52;;;18.00;76.20;;;;;;5074883;28;20028;-94
2022/05/13 07:52:36;;;;;;;3.25;1.00;;;18.00;75.60;;;;;;5074642;28;20039;-89
2022/05/13 07:55:03;;;;;;;2.15;1.52;;;18.10;73.70;;;;;;5074646;28;20103;-87
2022/05/13 07:57:29;;;;;;;2.50;1.17;;;18.00;71.10;;;;;;5075654;28;20025;-88
2022/05/13 08:02:38;;;;;;;3.95;1.75;;;18.10;75.90;;;;;;5075931;28;20031;-88
2022/05/13 08:05:05;;;;;;;2.85;1.60;;;18.30;72.50;;;;;;5074679;28;20479;-90
2022/05/13 08:07:31;;;;;;;5.60;1.50;;;18.50;72.10;;;;;;5074544;28;20048;-87
2022/05/13 08:09:57;;;;;;;6.00;1.90;;;18.60;72.00;;;;;;5075571;28;20016;-87
2022/05/13 08:12:22;;;;;;;2.75;1.42;;;18.70;68.90;;;;;;5074299;28;20029;-88
2022/05/13 08:14:48;;;;;;;4.57;1.30;;;18.80;69.30;;;;;;5074156;28;20459;-89
2022/05/13 08:17:14;;;;;;;2.97;1.55;;;18.90;71.10;;;;;;5074508;28;20025;-88
2022/05/13 08:19:40;;;;;;;3.28;1.20;;;18.90;68.90;;;;;;5074191;28;20024;-89
2022/05/13 08:22:06;;;;;;;2.10;1.30;;;19.00;69.50;;;;;;5074240;28;20021;-88
2022/05/13 08:24:32;;;;;;;1.42;1.33;;;19.00;67.60;;;;;;5074030;28;20024;-88
2022/05/13 08:26:58;;;;;;;7.68;1.67;;;19.00;64.30;;;;;;5074059;28;20033;-87
2022/05/13 08:29:23;;;;;;;2.78;1.33;;;19.00;65.70;;;;;;5074050;28;20459;-89
2022/05/13 08:31:50;;;;;;;1.48;1.20;;;19.00;65.60;;;;;;5074050;28;20021;-88
2022/05/13 08:34:16;;;;;;;2.35;1.13;;;19.00;65.80;;;;;;5074441;28;20502;-87
2022/05/13 08:36:43;;;;;;;2.20;1.15;;;19.10;66.70;;;;;;5074812;28;20043;-87
2022/05/13 08:39:10;;;;;;;2.25;1.20;;;19.10;64.90;;;;;;5073607;28;20078;-87
2022/05/13 08:41:51;;;;;;;2.45;1.20;;;19.20;63.00;;;;;;5073723;28;20115;-87
2022/05/13 08:44:18;;;;;;;2.10;1.33;;;19.30;63.50;;;;;;5073777;28;20102;-88
2022/05/13 08:46:55;;;;;;;4.10;1.52;;;19.40;66.00;;;;;;5073319;28;20055;-87
2022/05/13 08:49:32;;;;;;;2.75;1.30;;;19.50;64.60;;;;;;5073417;28;20107;-87
2022/05/13 08:53:06;;;;;;;2.97;1.45;;;19.60;62.20;;;;;;5074439;28;20030;-85
2022/05/13 08:54:58;;;;;;;2.75;1.33;;;19.70;63.00;;;;;;5074273;28;20477;-89
2022/05/13 08:57:28;;;;;;;1.77;1.02;;;19.80;62.80;;;;;;5073347;28;20021;-87
2022/05/13 09:00:13;;;;;;;6.28;1.30;;;19.80;63.90;;;;;;5073161;28;20021;-85
2022/05/13 09:02:48;;;;;;;5.28;1.25;;;19.80;63.90;;;;;;5073185;28;20090;-88
2022/05/13 09:05:43;;;;;;;3.42;1.15;;;19.70;62.80;;;;;;5072695;28;20123;-86
2022/05/13 09:08:10;;;;;;;5.00;1.33;;;19.70;63.90;;;;;;5070410;28;20455;-87
2022/05/13 09:10:41;;;;;;;3.78;1.13;;;19.80;63.80;;;;;;5073170;28;20028;-87
2022/05/13 09:13:09;;;;;;;1.10;1.00;;;19.80;64.90;;;;;;5073117;28;20071;-86
2022/05/13 09:15:47;;;;;;;3.00;1.08;;;19.80;63.60;;;;;;5073100;28;20115;-87
2022/05/13 09:18:33;;;;;;;4.45;1.17;;;19.80;63.60;;;;;;5073060;28;20059;-89
2022/05/13 09:21:09;;;;;;;2.63;1.00;;;19.70;62.80;;;;;;5073223;28;20426;-89
2022/05/13 09:23:34;;;;;;;1.20;1.10;;;19.80;64.40;;;;;;5073375;28;20063;-86
2022/05/13 09:26:13;;;;;;;1.65;1.25;;;19.80;64.80;;;;;;5073099;28;20470;-86
2022/05/13 09:29:09;;;;;;;2.75;1.33;;;19.90;63.90;;;;;;5073365;28;20025;-88
2022/05/13 09:31:44;;;;;;;1.65;1.25;;;20.00;63.10;;;;;;5074609;28;20516;-88
2022/05/13 09:34:14;;;;;;;3.47;1.00;;;20.00;63.80;;;;;;5072906;28;20052;-87
2022/05/13 09:36:40;;;;;;;;;;;20.20;63.70;;;;;;5074507;28;20025;-91
2022/05/13 09:39:25;;;;;;;1.27;1.00;;;20.20;62.70;;;;;;5074167;28;19908;-89
2022/05/13 09:41:52;;;;;;;3.13;1.35;;;20.30;64.40;;;;;;5073261;28;20481;-86
2022/05/13 09:44:22;;;;;;;3.75;1.33;;;20.40;63.40;;;;;;5073012;28;20036;-87
2022/05/13 09:47:08;;;;;;;4.93;1.00;;;20.50;64.60;;;;;;5073211;28;20493;-91
2022/05/13 09:49:38;;;;;;;3.08;1.52;;;20.60;64.40;;;;;;5072744;28;20039;-89
2022/05/13 09:52:07;;;;;;;3.05;1.27;;;20.70;62.70;;;;;;5072605;28;20020;-89
2022/05/13 09:54:35;;;;;;;2.40;1.50;;;20.70;62.80;;;;;;5072591;28;20025;-89
2022/05/13 09:57:10;;;;;;;3.85;1.30;;;20.70;62.70;;;;;;5073989;28;20020;-90
2022/05/13 09:59:45;;;;;;;5.97;1.50;;;20.80;62.20;;;;;;5073731;28;20122;-89
2022/05/13 10:02:26;;;;;;;1.60;1.30;;;21.00;61.30;;;;;;5074110;28;20063;-87
2022/05/13 10:04:55;;;;;;;2.03;1.30;;;21.20;62.50;;;;;;5072600;28;20021;-90
2022/05/13 10:07:23;;;;;;;2.60;1.20;;;21.30;62.60;;;;;;5072634;28;20096;-90
2022/05/13 10:15:42;;;;;;;2.67;1.35;;;21.50;61.70;;;;;;5073982;28;20078;-87
2022/05/13 10:18:26;;;;;;;1.83;1.20;;;21.70;62.10;;;;;;5076068;28;20028;-87
2022/05/13 10:21:04;;;;;;;4.88;1.25;;;21.90;62.40;;;;;;5076449;28;20016;-87
2022/05/13 10:23:33;;;;;;;2.20;1.38;;;21.60;60.50;;;;;;5076252;28;20081;-86
2022/05/13 10:26:06;;;;;;;3.50;1.90;;;21.70;61.90;;;;;;5076483;28;20021;-87
2022/05/13 10:28:58;;;;;;;4.10;1.48;;;21.80;62.20;;;;;;5076137;28;20025;-85
2022/05/13 10:31:27;;;;;;;5.65;1.77;;;21.80;61.50;;;;;;5063284;28;20391;-87
2022/05/13 10:34:10;;;;;;;4.05;1.40;;;21.80;62.90;;;;;;5075948;28;20053;-88
2022/05/13 10:37:10;;;;;;;2.10;1.50;;;21.80;61.40;;;;;;5076286;28;20098;-85
2022/05/13 10:39:47;;;;;;;;;;;21.80;61.70;;;;;;5070827;28;20383;-88
2022/05/13 10:42:23;;;;;;;1.27;1.13;;;21.90;61.20;;;;;;5075765;28;19908;-87
2022/05/13 10:44:58;;;;;;;4.65;1.60;;;22.10;61.70;;;;;;5075943;28;20060;-88
2022/05/13 10:47:40;;;;;;;4.68;1.58;;;22.10;62.40;;;;;;5075915;28;20082;-87
2022/05/13 10:50:17;;;;;;;4.55;1.70;;;22.10;62.40;;;;;;5075842;28;20035;-88
2022/05/13 10:52:52;;;;;;;3.00;1.40;;;22.00;61.40;;;;;;5076963;28;20485;-86
2022/05/13 10:55:33;;;;;;;3.08;2.03;;;21.80;62.00;;;;;;5075513;28;20386;-88
2022/05/13 10:58:26;;;;;;;6.32;2.30;;;21.80;62.00;;;;;;5076124;28;20082;-89
2022/05/13 11:00:59;;;;;;;7.03;1.83;;;21.70;61.70;;;;;;5075830;28;20387;-84
2022/05/13 11:03:28;;;;;;;3.83;1.52;;;21.70;62.00;;;;;;5075930;28;20090;-89
2022/05/13 11:06:01;;;;;;;7.10;1.90;;;21.30;62.30;;;;;;5075720;28;20021;-86
2022/05/13 11:08:40;;;;;;;3.53;1.80;;;21.30;62.20;;;;;;5075372;28;20026;-87
2022/05/13 11:11:33;;;;;;;4.72;2.03;;;21.30;62.90;;;;;;5076510;28;20025;-85
2022/05/13 11:14:17;;;;;;;3.90;2.03;;;21.40;62.60;;;;;;5075079;28;20105;-86
2022/05/13 11:17:26;;;;;;;4.28;1.73;;;21.40;63.80;;;;;;5075300;28;20543;-88
2022/05/13 11:20:06;;;;;;;6.20;2.28;;;21.60;63.70;;;;;;5037739;28;20089;-87
2022/05/13 11:22:38;;;;;;;;;;;21.60;63.80;;;;;;5075545;28;20017;-87
2022/05/13 11:25:55;;;;;;;6.70;2.30;;;21.50;62.70;;;;;;5076202;28;19904;-85
2022/05/13 11:28:54;;;;;;;5.03;2.20;;;21.70;63.30;;;;;;5064862;28;20474;-87
2022/05/13 11:31:55;;;;;;;2.35;1.92;;;22.00;63.20;;;;;;5070274;28;20033;-86
2022/05/13 11:34:42;;;;;;;7.75;2.35;;;22.20;62.90;;;;;;5075919;28;20041;-89
2022/05/13 11:37:12;;;;;;;5.68;2.20;;;22.20;62.30;;;;;;5075863;28;20049;-87
2022/05/13 11:39:55;;;;;;;4.28;2.58;;;22.10;62.70;;;;;;5076020;28;20028;-87
2022/05/13 11:45:42;;;;;;;5.03;2.05;;;21.80;62.60;;;;;;5076071;28;20071;-87
2022/05/13 11:48:27;;;;;;;2.97;1.85;;;21.90;63.20;;;;;;5075078;28;20020;-88
2022/05/13 11:51:12;;;;;;;3.63;2.05;;;22.20;62.20;;;;;;5074736;28;20467;-87
2022/05/13 11:53:59;;;;;;;4.18;1.95;;;22.40;61.70;;;;;;5075679;28;20032;-89
2022/05/13 11:56:31;;;;;;;2.95;2.10;;;22.40;61.20;;;;;;5075739;28;20031;-90
2022/05/13 11:59:31;;;;;;;3.17;1.80;;;22.60;62.30;;;;;;5075818;28;20100;-88
2022/05/13 12:02:09;;;;;;;5.30;2.30;;;23.00;60.50;;;;;;5074382;28;20027;-87
2022/05/13 12:04:38;;;;;;;2.78;2.10;;;23.40;61.40;;;;;;5074283;28;20493;-87
2022/05/13 12:07:32;;;;;;;3.08;2.00;;;23.40;59.60;;;;;;5074364;28;20360;-89
2022/05/13 12:09:59;;;;;;;5.88;1.85;;;23.20;59.20;;;;;;5075289;28;20044;-87
2022/05/13 12:12:31;;;;;;;1.80;1.70;;;23.00;60.90;;;;;;5074344;28;20028;-87
2022/05/13 12:15:06;;;;;;;3.58;1.92;;;22.70;60.30;;;;;;5074208;28;20548;-87
2022/05/13 12:17:41;;;;;;;6.93;1.98;;;22.50;61.10;;;;;;5075264;28;20070;-88
2022/05/13 12:20:24;;;;;;;7.20;2.17;;;22.50;60.90;;;;;;5074254;28;20063;-90
2022/05/13 12:23:13;;;;;;;1.92;1.70;;;22.60;60.80;;;;;;5074242;28;20104;-86
2022/05/13 12:25:43;;;;;;;6.22;1.88;;;23.20;60.40;;;;;;5061389;28;20067;-90
2022/05/13 12:28:15;;;;;;;3.60;1.75;;;23.70;60.30;;;;;;5073881;28;20033;-87
2022/05/13 12:30:42;;;;;;;3.47;1.95;;;24.10;58.00;;;;;;5075074;28;20034;-89
2022/05/13 12:39:14;;;;;;;4.93;1.70;;;24.40;57.50;;;;;;5074535;28;20090;-85
2022/05/13 12:41:45;;;;;;;2.95;1.70;;;24.50;55.90;;;;;;4993926;28;20477;-90
2022/05/13 12:44:16;;;;;;;1.55;1.45;;;24.70;56.20;;;;;;4993597;28;20022;-89
2022/05/13 12:46:49;;;;;;;2.33;1.80;;;24.70;55.60;;;;;;5029176;28;20035;-88
2022/05/13 12:49:26;;;;;;;4.55;1.45;;;24.40;54.60;;;;;;5073474;28;20028;-86
2022/05/13 12:52:12;;;;;;;7.03;2.53;;;24.40;55.50;;;;;;5073272;28;20025;-86
2022/05/13 12:54:44;;;;;;;4.28;1.60;;;23.90;56.40;;;;;;5073099;28;20081;-88
2022/05/13 12:57:33;;;;;;;2.08;1.60;;;23.30;57.80;;;;;;5074473;28;20048;-88
2022/05/13 12:59:58;;;;;;;4.00;1.65;;;23.40;58.30;;;;;;5073333;28;20386;-85
2022/05/13 13:02:28;;;;;;;2.42;1.67;;;23.10;58.10;;;;;;5073345;28;20111;-87
2022/05/13 13:05:01;;;;;;;4.05;1.63;;;22.90;58.50;;;;;;5073071;28;20021;-87
2022/05/13 13:07:31;;;;;;;2.85;1.83;;;23.00;58.50;;;;;;5073210;28;20025;-87
2022/05/13 13:09:57;;;;;;;2.42;1.67;;;23.10;59.10;;;;;;5073038;28;20025;-86
2022/05/13 13:12:54;;;;;;;6.53;1.70;;;23.50;58.90;;;;;;5074313;28;20059;-87
2022/05/13 13:15:26;;;;;;;2.03;1.67;;;23.90;57.70;;;;;;5074227;28;20025;-86
2022/05/13 13:18:06;;;;;;;1.77;1.25;;;24.10;56.60;;;;;;5073984;28;20540;-88
2022/05/13 13:20:44;;;;;;;3.33;1.30;;;24.20;55.50;;;;;;5072888;28;20025;-87
2022/05/13 13:23:11;;;;;;;4.60;2.17;;;24.30;55.90;;;;;;5073142;28;20063;-87
2022/05/13 13:25:41;;;;;;;3.17;1.80;;;24.20;54.90;;;;;;5074117;28;20028;-87
2022/05/13 13:28:12;;;;;;;3.28;1.83;;;23.80;55.60;;;;;;5074065;28;20020;-86
2022/05/13 13:30:44;;;;;;;5.53;2.15;;;23.70;55.60;;;;;;5074150;28;20114;-87
2022/05/13 13:33:10;;;;;;;2.50;1.40;;;23.50;55.70;;;;;;5072852;28;20391;-87
2022/05/13 13:35:45;;;;;;;3.38;1.45;;;23.70;56.00;;;;;;5073989;28;20040;-88